Imperial, Texas
Current Conditions -  °F | °C
As of 7:34 AM on Tuesday 21 Oct 2014 (Local Time) from KFST Reporting Station
Light Rain Light Rain  
Wind Chill: 62°   Ceiling: 2300
Heat Index: 62°   Visibility: 10mi
Dew Point: 61°   Wind: 7mph
Humidity: 96%   Direction: 120°ESE
Pressure: 30.08"   Gusts: NA
Location:  31.27°N, 102.69°W
Report Text: KFST 211234Z AUTO 12006KT 10SM -RA BKN023 OVC055 17/16 A3008 RMK AO2 RAE10B20 T01670161 PNO
Loading
Personal Weather Stations






























Interactive Weather Map
Tropical Storm Tracking
New forecast layout! Learn more

10-Day Weather Forecast

Advertisements
Track Severe Weather on mobile